Athol Springs, NY (14010)

5:43 AM EST on February 08, 2016 (GMT -0500)
Near Ralph Wilson Stadium | | Change Station
CLOSE
Current Station
Personal Weather Station
Location: Hamburg, NY
Elevation: 770 ft
Nearby Weather Stations

Elev 770 ft 42.76 °N, 78.80 °W | Updated 12 minutes ago

Overcast
Overcast
42.8 °F
Feels Like 40 °F
N
5.0
Wind Variable Wind from South
Gusts 12.0 mph

Today
High -- | Low -- °F
--% Chance of Precip.
Yesterday
High -- | Low -- °F
Precip. -- in
Pressure 29.71 in
Visibility 10.0 miles
Clouds Overcast 8500 ft
Windchill 40 °F
Dew Point 26 °F
Humidity 52%
Rainfall 0.00 in
Snow Depth Not available.
7:22 AM 5:37 PM
Waning Crescent, 0% visible
METAR KBUF 080954Z 14005KT 10SM OVC085 04/M04 A2970 RMK AO2 SLP061 T00391039
Pressure 29.71 in
Visibility 10.0 miles
Clouds Overcast 8500 ft
Windchill 40 °F
Dew Point 26 °F
Humidity 52%
Rainfall 0.00 in
Snow Depth Not available.
7:22 AM 5:37 PM
Waning Crescent, 0% visible
METAR KBUF 080954Z 14005KT 10SM OVC085 04/M04 A2970 RMK AO2 SLP061 T00391039

10-Day Weather Forecast

Almanac

Astronomy

Feb. 08, 2016 Rise Set
Actual Time
Civil Twilight
Nautical Twilight
Astronomical Twilight
Moon
Length of Visible Light
Length of Day
Tomorrow will be .
, % of the Moon is Illuminated

Today's Extremes

State Highs State Lows

Community

WunderPhotos

Upload Photos

1,891,420 photos uploaded!

WunderBlog® & News

Nearby

Air Quality

  Air Quality AQ Index Pollutant
Not available.

Snow Depth

Station Depth Elevation

Earthquake Activity

City Distance Mag. Time & Date
Minimum magnitude displayed is 2.5.

Coastal Water Temperatures

Place Temperature

Stations

Nearby Weather Stations

Station Location Temp. Windchill Dew Point Humidity Wind Precip. Elev Updated Type
                   

Watches & Warnings

There are currently no watches in effect.